sensor_id;sensor_type;location;lat;lon;timestamp;pressure;altitude;pressure_sealevel;temperature;humidity
16793;BME280;8513;42.662;23.350;2022-08-19T00:00:15;94667.66;;;24.43;43.68
16793;BME280;8513;42.662;23.350;2022-08-19T00:02:41;94668.31;;;24.34;44.18
16793;BME280;8513;42.662;23.350;2022-08-19T00:05:08;94672.78;;;24.45;44.11
16793;BME280;8513;42.662;23.350;2022-08-19T00:07:34;94680.66;;;24.35;44.39
16793;BME280;8513;42.662;23.350;2022-08-19T00:09:59;94669.53;;;24.09;45.30
16793;BME280;8513;42.662;23.350;2022-08-19T00:12:25;94672.94;;;24.21;44.96
16793;BME280;8513;42.662;23.350;2022-08-19T00:14:50;94669.78;;;24.25;44.88
16793;BME280;8513;42.662;23.350;2022-08-19T00:17:16;94668.06;;;24.18;45.43
16793;BME280;8513;42.662;23.350;2022-08-19T00:19:41;94675.63;;;24.05;45.88
16793;BME280;8513;42.662;23.350;2022-08-19T00:22:07;94677.25;;;24.06;46.57
16793;BME280;8513;42.662;23.350;2022-08-19T00:24:34;94688.44;;;24.14;45.97
16793;BME280;8513;42.662;23.350;2022-08-19T00:27:00;94692.00;;;24.03;46.09
16793;BME280;8513;42.662;23.350;2022-08-19T00:29:27;94682.72;;;23.94;46.50
16793;BME280;8513;42.662;23.350;2022-08-19T00:31:53;94692.72;;;23.98;46.59
16793;BME280;8513;42.662;23.350;2022-08-19T00:34:21;94683.03;;;23.97;46.14
16793;BME280;8513;42.662;23.350;2022-08-19T00:36:47;94687.00;;;23.95;46.67
16793;BME280;8513;42.662;23.350;2022-08-19T00:39:14;94686.28;;;23.54;47.77
16793;BME280;8513;42.662;23.350;2022-08-19T00:41:41;94686.25;;;23.66;47.32
16793;BME280;8513;42.662;23.350;2022-08-19T00:44:13;94687.72;;;23.73;46.64
16793;BME280;8513;42.662;23.350;2022-08-19T00:46:42;94678.50;;;23.69;46.95
16793;BME280;8513;42.662;23.350;2022-08-19T00:49:13;94676.75;;;23.75;46.90
16793;BME280;8513;42.662;23.350;2022-08-19T00:51:41;94673.13;;;23.69;46.99
16793;BME280;8513;42.662;23.350;2022-08-19T00:54:08;94676.31;;;23.66;47.30
16793;BME280;8513;42.662;23.350;2022-08-19T00:56:34;94682.34;;;23.73;46.85
16793;BME280;8513;42.662;23.350;2022-08-19T00:59:01;94676.81;;;23.63;47.18
16793;BME280;8513;42.662;23.350;2022-08-19T01:01:27;94680.53;;;23.62;47.25
16793;BME280;8513;42.662;23.350;2022-08-19T01:03:53;94677.75;;;23.57;47.09
16793;BME280;8513;42.662;23.350;2022-08-19T01:06:18;94681.50;;;23.56;47.17
16793;BME280;8513;42.662;23.350;2022-08-19T01:08:44;94684.66;;;23.53;47.48
16793;BME280;8513;42.662;23.350;2022-08-19T01:11:09;94679.78;;;23.21;48.08
16793;BME280;8513;42.662;23.350;2022-08-19T01:13:35;94687.06;;;23.38;47.75
16793;BME280;8513;42.662;23.350;2022-08-19T01:16:04;94681.47;;;23.39;47.87
16793;BME280;8513;42.662;23.350;2022-08-19T01:18:32;94685.06;;;23.33;48.30
16793;BME280;8513;42.662;23.350;2022-08-19T01:21:18;94678.28;;;23.14;48.71
16793;BME280;8513;42.662;23.350;2022-08-19T01:23:45;94675.16;;;23.05;49.01
16793;BME280;8513;42.662;23.350;2022-08-19T01:26:20;94677.75;;;23.00;49.30
16793;BME280;8513;42.662;23.350;2022-08-19T01:28:48;94678.44;;;23.07;49.08
16793;BME280;8513;42.662;23.350;2022-08-19T01:31:26;94682.50;;;23.09;49.13
16793;BME280;8513;42.662;23.350;2022-08-19T01:33:56;94683.53;;;23.20;48.92
16793;BME280;8513;42.662;23.350;2022-08-19T01:36:43;94683.63;;;23.14;48.90
16793;BME280;8513;42.662;23.350;2022-08-19T01:39:13;94685.50;;;23.13;48.95
16793;BME280;8513;42.662;23.350;2022-08-19T01:41:39;94677.94;;;23.10;49.10
16793;BME280;8513;42.662;23.350;2022-08-19T01:44:06;94677.47;;;23.13;49.48
16793;BME280;8513;42.662;23.350;2022-08-19T01:46:32;94684.56;;;23.19;49.08
16793;BME280;8513;42.662;23.350;2022-08-19T01:48:58;94677.03;;;23.04;49.62
16793;BME280;8513;42.662;23.350;2022-08-19T01:51:24;94682.94;;;23.06;49.37
16793;BME280;8513;42.662;23.350;2022-08-19T01:53:50;94676.44;;;22.90;49.97
16793;BME280;8513;42.662;23.350;2022-08-19T01:56:17;94684.13;;;22.99;49.95
16793;BME280;8513;42.662;23.350;2022-08-19T01:58:48;94673.84;;;22.96;49.81
16793;BME280;8513;42.662;23.350;2022-08-19T02:01:14;94679.25;;;22.84;50.37
16793;BME280;8513;42.662;23.350;2022-08-19T02:03:40;94680.53;;;23.05;49.95
16793;BME280;8513;42.662;23.350;2022-08-19T02:06:05;94682.75;;;22.84;50.61
16793;BME280;8513;42.662;23.350;2022-08-19T02:08:33;94688.09;;;22.84;50.81
16793;BME280;8513;42.662;23.350;2022-08-19T02:11:00;94684.50;;;22.79;50.63
16793;BME280;8513;42.662;23.350;2022-08-19T02:13:27;94678.44;;;22.83;50.34
16793;BME280;8513;42.662;23.350;2022-08-19T02:15:53;94672.03;;;22.02;52.96
16793;BME280;8513;42.662;23.350;2022-08-19T02:18:18;94685.50;;;22.37;51.87
16793;BME280;8513;42.662;23.350;2022-08-19T02:20:44;94677.19;;;22.51;51.11
16793;BME280;8513;42.662;23.350;2022-08-19T02:23:12;94682.47;;;22.45;51.41
16793;BME280;8513;42.662;23.350;2022-08-19T02:25:38;94679.19;;;22.43;51.86
16793;BME280;8513;42.662;23.350;2022-08-19T02:28:05;94683.16;;;22.41;51.78
16793;BME280;8513;42.662;23.350;2022-08-19T02:32:56;94685.03;;;22.40;51.63
16793;BME280;8513;42.662;23.350;2022-08-19T02:35:22;94681.06;;;22.43;51.43
16793;BME280;8513;42.662;23.350;2022-08-19T02:37:47;94674.88;;;22.42;51.36
16793;BME280;8513;42.662;23.350;2022-08-19T02:40:32;94683.38;;;22.39;51.49
16793;BME280;8513;42.662;23.350;2022-08-19T02:43:00;94682.56;;;22.39;51.47
16793;BME280;8513;42.662;23.350;2022-08-19T02:45:26;94680.44;;;22.29;51.93
16793;BME280;8513;42.662;23.350;2022-08-19T02:47:51;94688.84;;;22.33;51.58
16793;BME280;8513;42.662;23.350;2022-08-19T02:50:17;94684.78;;;22.30;51.37
16793;BME280;8513;42.662;23.350;2022-08-19T02:52:43;94691.53;;;22.33;51.40
16793;BME280;8513;42.662;23.350;2022-08-19T02:55:10;94688.50;;;22.29;51.21
16793;BME280;8513;42.662;23.350;2022-08-19T02:57:35;94691.16;;;22.29;51.08
16793;BME280;8513;42.662;23.350;2022-08-19T03:00:04;94699.78;;;22.31;51.14
16793;BME280;8513;42.662;23.350;2022-08-19T03:02:30;94697.94;;;22.20;51.78
16793;BME280;8513;42.662;23.350;2022-08-19T03:04:55;94697.94;;;22.20;51.89
16793;BME280;8513;42.662;23.350;2022-08-19T03:07:21;94700.44;;;22.15;51.95
16793;BME280;8513;42.662;23.350;2022-08-19T03:09:46;94697.78;;;22.15;51.96
16793;BME280;8513;42.662;23.350;2022-08-19T03:12:12;94697.13;;;22.19;51.69
16793;BME280;8513;42.662;23.350;2022-08-19T03:14:37;94687.66;;;22.17;51.06
16793;BME280;8513;42.662;23.350;2022-08-19T03:17:04;94680.56;;;22.11;51.43
16793;BME280;8513;42.662;23.350;2022-08-19T03:19:30;94688.34;;;22.12;51.59
16793;BME280;8513;42.662;23.350;2022-08-19T03:21:57;94675.28;;;22.16;51.63
16793;BME280;8513;42.662;23.350;2022-08-19T03:24:22;94674.13;;;22.12;51.87
16793;BME280;8513;42.662;23.350;2022-08-19T03:26:51;94675.75;;;22.13;52.23
16793;BME280;8513;42.662;23.350;2022-08-19T03:29:19;94684.72;;;22.07;52.52
16793;BME280;8513;42.662;23.350;2022-08-19T03:31:46;94679.38;;;21.95;52.83
16793;BME280;8513;42.662;23.350;2022-08-19T03:34:13;94686.13;;;21.97;52.63
16793;BME280;8513;42.662;23.350;2022-08-19T03:36:39;94686.91;;;21.86;53.04
16793;BME280;8513;42.662;23.350;2022-08-19T03:39:05;94689.69;;;21.79;53.16
16793;BME280;8513;42.662;23.350;2022-08-19T03:41:35;94693.84;;;21.75;53.85
16793;BME280;8513;42.662;23.350;2022-08-19T03:44:01;94697.75;;;21.31;54.80
16793;BME280;8513;42.662;23.350;2022-08-19T03:46:29;94696.50;;;21.64;53.98
16793;BME280;8513;42.662;23.350;2022-08-19T03:48:57;94708.34;;;21.56;54.15
16793;BME280;8513;42.662;23.350;2022-08-19T03:51:25;94706.16;;;21.65;54.13
16793;BME280;8513;42.662;23.350;2022-08-19T03:53:54;94708.84;;;21.65;54.20
16793;BME280;8513;42.662;23.350;2022-08-19T03:56:20;94707.00;;;21.65;54.28
16793;BME280;8513;42.662;23.350;2022-08-19T03:58:46;94716.09;;;21.76;53.82
16793;BME280;8513;42.662;23.350;2022-08-19T04:01:15;94719.97;;;21.92;53.27
16793;BME280;8513;42.662;23.350;2022-08-19T04:03:43;94720.66;;;21.87;53.59
16793;BME280;8513;42.662;23.350;2022-08-19T04:06:15;94724.44;;;21.68;54.10
16793;BME280;8513;42.662;23.350;2022-08-19T04:08:43;94728.69;;;21.87;53.11
16793;BME280;8513;42.662;23.350;2022-08-19T04:11:12;94722.16;;;21.83;53.13
16793;BME280;8513;42.662;23.350;2022-08-19T04:13:38;94728.38;;;21.95;52.88
16793;BME280;8513;42.662;23.350;2022-08-19T04:16:04;94722.34;;;21.70;53.73
16793;BME280;8513;42.662;23.350;2022-08-19T04:18:30;94731.47;;;21.80;53.77
16793;BME280;8513;42.662;23.350;2022-08-19T04:20:56;94732.78;;;21.90;53.28
16793;BME280;8513;42.662;23.350;2022-08-19T04:23:23;94733.94;;;21.94;53.39
16793;BME280;8513;42.662;23.350;2022-08-19T04:25:48;94725.88;;;21.82;53.51
16793;BME280;8513;42.662;23.350;2022-08-19T04:28:14;94735.22;;;21.91;52.99
16793;BME280;8513;42.662;23.350;2022-08-19T04:30:46;94737.66;;;21.93;53.03
16793;BME280;8513;42.662;23.350;2022-08-19T04:33:14;94744.19;;;21.97;52.95
16793;BME280;8513;42.662;23.350;2022-08-19T04:35:42;94737.66;;;21.93;53.33
16793;BME280;8513;42.662;23.350;2022-08-19T04:38:08;94739.69;;;22.09;52.98
16793;BME280;8513;42.662;23.350;2022-08-19T04:40:39;94733.50;;;22.09;52.88
16793;BME280;8513;42.662;23.350;2022-08-19T04:43:23;94733.47;;;21.97;53.42
16793;BME280;8513;42.662;23.350;2022-08-19T04:45:49;94734.09;;;22.11;52.65
16793;BME280;8513;42.662;23.350;2022-08-19T04:48:16;94724.16;;;22.30;51.97
16793;BME280;8513;42.662;23.350;2022-08-19T04:50:43;94728.97;;;22.09;52.35
16793;BME280;8513;42.662;23.350;2022-08-19T04:53:09;94722.47;;;22.17;52.13
16793;BME280;8513;42.662;23.350;2022-08-19T04:55:39;94729.00;;;22.21;51.83
16793;BME280;8513;42.662;23.350;2022-08-19T04:58:04;94735.75;;;22.23;51.16
16793;BME280;8513;42.662;23.350;2022-08-19T05:00:30;94726.56;;;22.31;50.97
16793;BME280;8513;42.662;23.350;2022-08-19T05:02:56;94735.53;;;22.25;51.86
16793;BME280;8513;42.662;23.350;2022-08-19T05:05:21;94738.00;;;22.27;51.95
16793;BME280;8513;42.662;23.350;2022-08-19T05:07:46;94732.75;;;22.32;51.99
16793;BME280;8513;42.662;23.350;2022-08-19T05:10:12;94741.38;;;22.57;51.38
16793;BME280;8513;42.662;23.350;2022-08-19T05:12:38;94743.03;;;22.70;50.19
16793;BME280;8513;42.662;23.350;2022-08-19T05:15:06;94743.84;;;22.59;50.50
16793;BME280;8513;42.662;23.350;2022-08-19T05:17:33;94739.41;;;22.64;50.46
16793;BME280;8513;42.662;23.350;2022-08-19T05:19:59;94736.38;;;22.61;50.45
16793;BME280;8513;42.662;23.350;2022-08-19T05:22:46;94736.25;;;22.79;49.57
16793;BME280;8513;42.662;23.350;2022-08-19T05:25:15;94741.50;;;22.86;49.88
16793;BME280;8513;42.662;23.350;2022-08-19T05:27:43;94738.09;;;22.90;49.77
16793;BME280;8513;42.662;23.350;2022-08-19T05:30:10;94739.25;;;22.95;49.06
16793;BME280;8513;42.662;23.350;2022-08-19T05:32:36;94746.38;;;23.13;48.40
16793;BME280;8513;42.662;23.350;2022-08-19T05:35:03;94745.09;;;23.15;48.53
16793;BME280;8513;42.662;23.350;2022-08-19T05:37:29;94738.78;;;23.21;48.39
16793;BME280;8513;42.662;23.350;2022-08-19T05:39:55;94739.47;;;23.28;47.48
16793;BME280;8513;42.662;23.350;2022-08-19T05:42:20;94750.75;;;23.30;47.66
16793;BME280;8513;42.662;23.350;2022-08-19T05:44:48;94750.22;;;23.17;47.87
16793;BME280;8513;42.662;23.350;2022-08-19T05:47:15;94743.44;;;23.26;47.72
16793;BME280;8513;42.662;23.350;2022-08-19T05:49:42;94753.16;;;23.44;47.36
16793;BME280;8513;42.662;23.350;2022-08-19T05:52:11;94748.28;;;23.41;47.68
16793;BME280;8513;42.662;23.350;2022-08-19T05:54:38;94747.69;;;23.50;47.95
16793;BME280;8513;42.662;23.350;2022-08-19T05:57:05;94747.63;;;23.74;47.27
16793;BME280;8513;42.662;23.350;2022-08-19T05:59:31;94740.16;;;23.64;47.51
16793;BME280;8513;42.662;23.350;2022-08-19T06:01:57;94750.16;;;23.81;47.26
16793;BME280;8513;42.662;23.350;2022-08-19T06:04:22;94749.47;;;23.73;47.81
16793;BME280;8513;42.662;23.350;2022-08-19T06:06:50;94751.44;;;23.78;47.70
16793;BME280;8513;42.662;23.350;2022-08-19T06:09:17;94751.00;;;23.69;47.44
16793;BME280;8513;42.662;23.350;2022-08-19T06:11:55;94751.41;;;23.90;46.42
16793;BME280;8513;42.662;23.350;2022-08-19T06:14:28;94751.00;;;23.98;45.91
16793;BME280;8513;42.662;23.350;2022-08-19T06:16:54;94753.53;;;24.05;46.20
16793;BME280;8513;42.662;23.350;2022-08-19T06:19:22;94752.22;;;24.07;45.99
16793;BME280;8513;42.662;23.350;2022-08-19T06:21:50;94757.91;;;24.11;46.00
16793;BME280;8513;42.662;23.350;2022-08-19T06:24:22;94758.09;;;24.04;45.68
16793;BME280;8513;42.662;23.350;2022-08-19T06:26:53;94752.47;;;24.06;45.87
16793;BME280;8513;42.662;23.350;2022-08-19T06:29:22;94751.91;;;24.20;44.88
16793;BME280;8513;42.662;23.350;2022-08-19T06:31:52;94753.22;;;24.35;44.81
16793;BME280;8513;42.662;23.350;2022-08-19T06:34:18;94751.91;;;24.37;44.30
16793;BME280;8513;42.662;23.350;2022-08-19T06:36:49;94758.44;;;24.41;44.15
16793;BME280;8513;42.662;23.350;2022-08-19T06:39:18;94749.00;;;24.56;44.44
16793;BME280;8513;42.662;23.350;2022-08-19T06:41:47;94748.53;;;24.76;44.12
16793;BME280;8513;42.662;23.350;2022-08-19T06:44:14;94751.13;;;24.71;44.22
16793;BME280;8513;42.662;23.350;2022-08-19T06:46:41;94757.13;;;24.78;45.60
16793;BME280;8513;42.662;23.350;2022-08-19T06:49:06;94749.22;;;24.88;44.06
16793;BME280;8513;42.662;23.350;2022-08-19T06:51:35;94748.41;;;24.87;44.42
16793;BME280;8513;42.662;23.350;2022-08-19T06:54:01;94749.34;;;24.98;44.36
16793;BME280;8513;42.662;23.350;2022-08-19T06:56:30;94754.56;;;25.05;44.45
16793;BME280;8513;42.662;23.350;2022-08-19T06:59:06;94748.47;;;24.93;44.58
16793;BME280;8513;42.662;23.350;2022-08-19T07:01:37;94751.25;;;24.98;45.27
16793;BME280;8513;42.662;23.350;2022-08-19T07:04:06;94751.19;;;25.15;44.92
16793;BME280;8513;42.662;23.350;2022-08-19T07:06:33;94758.34;;;25.26;44.74
16793;BME280;8513;42.662;23.350;2022-08-19T07:08:59;94759.72;;;25.28;44.65
16793;BME280;8513;42.662;23.350;2022-08-19T07:11:25;94766.84;;;25.35;44.29
16793;BME280;8513;42.662;23.350;2022-08-19T07:13:50;94761.88;;;25.48;44.01
16793;BME280;8513;42.662;23.350;2022-08-19T07:16:17;94760.25;;;25.25;44.50
16793;BME280;8513;42.662;23.350;2022-08-19T07:18:48;94753.09;;;25.36;44.28
16793;BME280;8513;42.662;23.350;2022-08-19T07:21:22;94756.50;;;25.48;44.15
16793;BME280;8513;42.662;23.350;2022-08-19T07:23:48;94766.13;;;25.66;43.78
16793;BME280;8513;42.662;23.350;2022-08-19T07:26:21;94758.47;;;25.80;44.13
16793;BME280;8513;42.662;23.350;2022-08-19T07:28:47;94757.78;;;25.68;43.50
16793;BME280;8513;42.662;23.350;2022-08-19T07:31:15;94754.06;;;25.74;43.54
16793;BME280;8513;42.662;23.350;2022-08-19T07:33:44;94754.84;;;25.69;42.70
16793;BME280;8513;42.662;23.350;2022-08-19T07:36:11;94756.53;;;25.75;42.57
16793;BME280;8513;42.662;23.350;2022-08-19T07:38:40;94749.16;;;25.88;42.43
16793;BME280;8513;42.662;23.350;2022-08-19T07:41:06;94756.50;;;25.98;43.81
16793;BME280;8513;42.662;23.350;2022-08-19T07:43:32;94755.25;;;26.05;41.77
16793;BME280;8513;42.662;23.350;2022-08-19T07:45:58;94753.91;;;26.08;41.58
16793;BME280;8513;42.662;23.350;2022-08-19T07:48:24;94747.31;;;26.21;41.80
16793;BME280;8513;42.662;23.350;2022-08-19T07:51:03;94749.47;;;26.24;41.82
16793;BME280;8513;42.662;23.350;2022-08-19T07:53:31;94754.44;;;26.37;41.62
16793;BME280;8513;42.662;23.350;2022-08-19T07:55:58;94760.97;;;26.41;40.82
16793;BME280;8513;42.662;23.350;2022-08-19T07:58:27;94753.22;;;26.50;40.42
16793;BME280;8513;42.662;23.350;2022-08-19T08:00:53;94747.91;;;26.55;40.27
16793;BME280;8513;42.662;23.350;2022-08-19T08:03:20;94762.22;;;26.60;41.93
16793;BME280;8513;42.662;23.350;2022-08-19T08:06:06;94753.31;;;26.60;41.46
16793;BME280;8513;42.662;23.350;2022-08-19T08:08:50;94752.00;;;26.68;41.15
16793;BME280;8513;42.662;23.350;2022-08-19T08:11:34;94751.25;;;26.72;41.31
16793;BME280;8513;42.662;23.350;2022-08-19T08:13:59;94749.09;;;26.74;40.59
16793;BME280;8513;42.662;23.350;2022-08-19T08:16:26;94751.59;;;26.86;41.11
16793;BME280;8513;42.662;23.350;2022-08-19T08:18:55;94747.25;;;26.80;40.52
16793;BME280;8513;42.662;23.350;2022-08-19T08:21:20;94742.22;;;26.99;39.32
16793;BME280;8513;42.662;23.350;2022-08-19T08:23:46;94745.00;;;27.09;39.99
16793;BME280;8513;42.662;23.350;2022-08-19T08:26:11;94730.25;;;27.22;38.74
16793;BME280;8513;42.662;23.350;2022-08-19T08:28:38;94737.56;;;27.26;38.91
16793;BME280;8513;42.662;23.350;2022-08-19T08:31:03;94733.75;;;27.22;40.28
16793;BME280;8513;42.662;23.350;2022-08-19T08:33:29;94730.81;;;27.24;39.01
16793;BME280;8513;42.662;23.350;2022-08-19T08:35:55;94732.16;;;27.32;38.67
16793;BME280;8513;42.662;23.350;2022-08-19T08:38:21;94736.56;;;27.53;37.78
16793;BME280;8513;42.662;23.350;2022-08-19T08:40:52;94737.94;;;27.61;37.17
16793;BME280;8513;42.662;23.350;2022-08-19T08:43:29;94741.47;;;27.56;39.94
16793;BME280;8513;42.662;23.350;2022-08-19T08:51:34;94729.41;;;27.89;38.23
16793;BME280;8513;42.662;23.350;2022-08-19T08:54:07;94729.16;;;27.86;39.56
16793;BME280;8513;42.662;23.350;2022-08-19T08:56:33;94721.53;;;27.78;40.30
16793;BME280;8513;42.662;23.350;2022-08-19T08:59:06;94726.09;;;27.77;42.56
16793;BME280;8513;42.662;23.350;2022-08-19T09:01:34;94722.94;;;27.80;43.06
16793;BME280;8513;42.662;23.350;2022-08-19T09:03:59;94720.25;;;27.85;41.79
16793;BME280;8513;42.662;23.350;2022-08-19T09:06:40;94714.03;;;28.10;36.00
16793;BME280;8513;42.662;23.350;2022-08-19T09:09:48;94709.72;;;28.09;37.58
16793;BME280;8513;42.662;23.350;2022-08-19T09:12:41;94701.09;;;28.12;40.08
16793;BME280;8513;42.662;23.350;2022-08-19T09:15:13;94702.44;;;28.15;38.18
16793;BME280;8513;42.662;23.350;2022-08-19T09:17:39;94705.13;;;28.35;36.19
16793;BME280;8513;42.662;23.350;2022-08-19T09:20:15;94703.22;;;28.41;36.89
16793;BME280;8513;42.662;23.350;2022-08-19T09:22:42;94701.09;;;28.53;36.07
16793;BME280;8513;42.662;23.350;2022-08-19T09:25:14;94693.78;;;28.54;33.71
16793;BME280;8513;42.662;23.350;2022-08-19T09:27:41;94698.38;;;28.79;29.27
16793;BME280;8513;42.662;23.350;2022-08-19T09:30:10;94695.63;;;28.84;28.86
16793;BME280;8513;42.662;23.350;2022-08-19T09:32:37;94695.09;;;28.82;34.24
16793;BME280;8513;42.662;23.350;2022-08-19T09:35:07;94683.44;;;28.87;33.70
16793;BME280;8513;42.662;23.350;2022-08-19T09:37:33;94686.69;;;29.04;31.21
16793;BME280;8513;42.662;23.350;2022-08-19T09:39:58;94682.59;;;29.12;31.60
16793;BME280;8513;42.662;23.350;2022-08-19T09:42:24;94675.22;;;29.28;29.06
16793;BME280;8513;42.662;23.350;2022-08-19T09:44:49;94680.31;;;29.39;30.09
16793;BME280;8513;42.662;23.350;2022-08-19T09:47:14;94678.91;;;29.47;30.94
16793;BME280;8513;42.662;23.350;2022-08-19T09:49:40;94682.38;;;29.58;30.84
16793;BME280;8513;42.662;23.350;2022-08-19T09:52:09;94675.84;;;29.69;30.46
16793;BME280;8513;42.662;23.350;2022-08-19T09:54:34;94685.06;;;29.68;30.73
16793;BME280;8513;42.662;23.350;2022-08-19T09:57:00;94675.28;;;29.72;30.79
16793;BME280;8513;42.662;23.350;2022-08-19T09:59:26;94669.00;;;29.82;27.49
16793;BME280;8513;42.662;23.350;2022-08-19T10:01:52;94665.88;;;29.99;29.29
16793;BME280;8513;42.662;23.350;2022-08-19T10:04:18;94667.16;;;30.11;29.75
16793;BME280;8513;42.662;23.350;2022-08-19T10:06:43;94658.97;;;30.17;28.19
16793;BME280;8513;42.662;23.350;2022-08-19T10:09:10;94658.13;;;30.26;28.02
16793;BME280;8513;42.662;23.350;2022-08-19T10:11:38;94654.00;;;30.34;28.76
16793;BME280;8513;42.662;23.350;2022-08-19T10:14:04;94661.00;;;30.40;28.48
16793;BME280;8513;42.662;23.350;2022-08-19T10:16:31;94658.91;;;30.32;28.27
16793;BME280;8513;42.662;23.350;2022-08-19T10:18:57;94657.50;;;30.35;29.38
16793;BME280;8513;42.662;23.350;2022-08-19T10:21:28;94648.75;;;30.43;28.27
16793;BME280;8513;42.662;23.350;2022-08-19T10:23:56;94644.50;;;30.61;26.35
16793;BME280;8513;42.662;23.350;2022-08-19T10:26:28;94646.31;;;30.70;26.59
16793;BME280;8513;42.662;23.350;2022-08-19T10:28:54;94647.59;;;30.78;27.80
16793;BME280;8513;42.662;23.350;2022-08-19T10:31:28;94647.16;;;30.95;26.40
16793;BME280;8513;42.662;23.350;2022-08-19T10:33:55;94635.44;;;30.99;27.09
16793;BME280;8513;42.662;23.350;2022-08-19T10:36:27;94640.44;;;31.11;26.94
16793;BME280;8513;42.662;23.350;2022-08-19T10:38:55;94632.75;;;31.18;26.26
16793;BME280;8513;42.662;23.350;2022-08-19T10:41:25;94642.75;;;31.23;26.31
16793;BME280;8513;42.662;23.350;2022-08-19T10:43:53;94634.47;;;31.33;26.49
16793;BME280;8513;42.662;23.350;2022-08-19T10:46:20;94640.91;;;31.42;25.51
16793;BME280;8513;42.662;23.350;2022-08-19T10:48:46;94637.25;;;31.52;24.60
16793;BME280;8513;42.662;23.350;2022-08-19T10:51:12;94639.06;;;31.57;26.24
16793;BME280;8513;42.662;23.350;2022-08-19T10:54:16;94630.41;;;31.74;26.60
16793;BME280;8513;42.662;23.350;2022-08-19T10:56:42;94632.53;;;31.77;26.06
16793;BME280;8513;42.662;23.350;2022-08-19T10:59:25;94630.41;;;31.74;24.97
16793;BME280;8513;42.662;23.350;2022-08-19T11:01:53;94627.09;;;31.77;25.83
16793;BME280;8513;42.662;23.350;2022-08-19T11:04:19;94628.22;;;31.95;24.87
16793;BME280;8513;42.662;23.350;2022-08-19T11:06:47;94619.69;;;32.01;24.60
16793;BME280;8513;42.662;23.350;2022-08-19T11:09:20;94622.03;;;32.08;24.77
16793;BME280;8513;42.662;23.350;2022-08-19T11:11:46;94624.16;;;32.11;24.86
16793;BME280;8513;42.662;23.350;2022-08-19T11:14:15;94619.56;;;32.25;24.27
16793;BME280;8513;42.662;23.350;2022-08-19T11:16:42;94622.09;;;32.36;24.80
16793;BME280;8513;42.662;23.350;2022-08-19T11:19:10;94613.22;;;32.63;25.10
16793;BME280;8513;42.662;23.350;2022-08-19T11:21:41;94613.72;;;32.79;24.05
16793;BME280;8513;42.662;23.350;2022-08-19T11:24:09;94619.47;;;32.77;23.56
16793;BME280;8513;42.662;23.350;2022-08-19T11:26:38;94612.31;;;32.81;23.49
16793;BME280;8513;42.662;23.350;2022-08-19T11:29:04;94619.28;;;32.87;23.30
16793;BME280;8513;42.662;23.350;2022-08-19T11:31:34;94613.53;;;32.89;23.87
16793;BME280;8513;42.662;23.350;2022-08-19T11:34:03;94614.25;;;32.94;24.15
16793;BME280;8513;42.662;23.350;2022-08-19T11:36:30;94610.44;;;33.09;24.37
16793;BME280;8513;42.662;23.350;2022-08-19T11:38:56;94608.72;;;33.13;24.05
16793;BME280;8513;42.662;23.350;2022-08-19T11:41:23;94599.63;;;33.18;23.67
16793;BME280;8513;42.662;23.350;2022-08-19T11:43:50;94597.00;;;33.27;23.70
16793;BME280;8513;42.662;23.350;2022-08-19T11:46:18;94599.91;;;33.44;23.49
16793;BME280;8513;42.662;23.350;2022-08-19T11:48:44;94600.25;;;33.65;23.54
16793;BME280;8513;42.662;23.350;2022-08-19T11:51:16;94594.69;;;33.70;23.18
16793;BME280;8513;42.662;23.350;2022-08-19T11:53:43;94592.56;;;33.67;22.89
16793;BME280;8513;42.662;23.350;2022-08-19T11:56:09;94593.59;;;33.94;23.44
16793;BME280;8513;42.662;23.350;2022-08-19T11:58:35;94587.97;;;34.13;22.38
16793;BME280;8513;42.662;23.350;2022-08-19T12:01:05;94580.59;;;34.13;21.79
16793;BME280;8513;42.662;23.350;2022-08-19T12:03:30;94585.44;;;34.16;23.28
16793;BME280;8513;42.662;23.350;2022-08-19T12:05:56;94586.66;;;34.10;22.73
16793;BME280;8513;42.662;23.350;2022-08-19T12:08:22;94581.94;;;34.02;22.46
16793;BME280;8513;42.662;23.350;2022-08-19T12:10:47;94571.44;;;34.09;22.25
16793;BME280;8513;42.662;23.350;2022-08-19T12:13:13;94571.31;;;34.14;22.24
16793;BME280;8513;42.662;23.350;2022-08-19T12:15:44;94557.88;;;34.26;22.45
16793;BME280;8513;42.662;23.350;2022-08-19T12:18:10;94570.75;;;34.57;21.79
16793;BME280;8513;42.662;23.350;2022-08-19T12:20:38;94567.56;;;34.64;21.26
16793;BME280;8513;42.662;23.350;2022-08-19T12:23:05;94558.56;;;34.63;21.19
16793;BME280;8513;42.662;23.350;2022-08-19T12:25:31;94553.06;;;34.55;21.37
16793;BME280;8513;42.662;23.350;2022-08-19T12:27:57;94548.66;;;34.45;21.98
16793;BME280;8513;42.662;23.350;2022-08-19T12:30:22;94543.19;;;34.67;21.63
16793;BME280;8513;42.662;23.350;2022-08-19T12:32:48;94541.75;;;34.79;21.87
16793;BME280;8513;42.662;23.350;2022-08-19T12:35:14;94547.91;;;35.02;21.77
16793;BME280;8513;42.662;23.350;2022-08-19T12:37:39;94549.69;;;35.06;21.45
16793;BME280;8513;42.662;23.350;2022-08-19T12:40:07;94548.09;;;35.05;20.82
16793;BME280;8513;42.662;23.350;2022-08-19T12:42:33;94548.16;;;35.23;20.89
16793;BME280;8513;42.662;23.350;2022-08-19T12:45:00;94535.47;;;35.44;20.49
16793;BME280;8513;42.662;23.350;2022-08-19T12:47:25;94539.34;;;35.61;20.17
16793;BME280;8513;42.662;23.350;2022-08-19T12:49:52;94542.25;;;35.90;19.27
16793;BME280;8513;42.662;23.350;2022-08-19T12:52:17;94543.19;;;36.20;19.47
16793;BME280;8513;42.662;23.350;2022-08-19T12:54:46;94539.81;;;36.24;19.74
16793;BME280;8513;42.662;23.350;2022-08-19T12:57:11;94532.13;;;36.64;19.16
16793;BME280;8513;42.662;23.350;2022-08-19T12:59:38;94528.34;;;36.77;18.12
16793;BME280;8513;42.662;23.350;2022-08-19T13:02:04;94529.94;;;36.87;18.34
16793;BME280;8513;42.662;23.350;2022-08-19T13:04:34;94534.22;;;36.97;18.49
16793;BME280;8513;42.662;23.350;2022-08-19T13:07:02;94529.00;;;37.13;18.16
16793;BME280;8513;42.662;23.350;2022-08-19T13:09:27;94520.94;;;37.37;18.01
16793;BME280;8513;42.662;23.350;2022-08-19T13:11:53;94528.16;;;37.63;17.51